This demonstration page uses our WeatherBlox Daily Observations layout. Learn more.

Left ArrowRight Arrow

39.92423, -83.80882

Hourly Observations for January 9, 2017

Temp ( °F °C ) Dew Point ( °F °C ) Humidity (%) Winds ( mph kmh ) Pressure ( in mb ) Visibility ( mi km ) Precip ( " mm )
12:56 am 00:56 Partly Cloudy 12 -11.1 5 -15 73 73 S 8 13 30.62 1037 10 16.0934 0 0
1:56 am 01:56 Mostly Cloudy 13 -10.6 6 -14.4 74 74 S 8 13 30.59 1036 10 16.0934 0 0
2:56 am 02:56 Cloudy 14 -10 7 -13.9 73 73 S 9 15 30.6 1036 10 16.0934 0 0
3:56 am 03:56 Cloudy 15 -9.4 8 -13.3 74 74 SSE 10 17 30.56 1035 10 16.0934 0 0
4:56 am 04:56 Cloudy 16 -8.9 9 -12.8 74 74 SSE 8 13 30.55 1035 10 16.0934 0 0
5:56 am 05:56 Cloudy 16 -8.9 8 -13.3 71 71 S 6 9 30.55 1035 10 16.0934 0 0
6:56 am 06:56 Cloudy 17 -8.3 9 -12.8 70 70 S 7 11 30.53 1034 10 16.0934 0 0
7:56 am 07:56 Cloudy 18 -7.8 10 -12.2 71 71 S 9 15 30.51 1033 10 16.0934 0 0
8:56 am 08:56 Cloudy 20 -6.7 10 -12.2 65 65 S 9 15 30.5 1033 10 16.0934 0 0
9:56 am 09:56 Cloudy 23 -5 12 -11.1 63 63 SSW 15 24 30.51 1033 10 16.0934 0 0
10:56 am 10:56 Mostly Sunny 26 -3.3 13 -10.6 57 57 SW 13 20 30.5 1033 10 16.0934 0 0
11:56 am 11:56 Sunny 30 -1.1 15 -9.4 54 54 SW 17 28 30.45 1031 10 16.0934 0 0
12:56 pm 12:56 Sunny 28 -2.2 15 -9.4 58 58 SW 12 19 30.43 1030 10 16.0934 0 0
1:56 pm 13:56 Sunny 29 -1.7 16 -8.9 58 58 SSW 14 22 30.42 1030 10 16.0934 0 0
2:56 pm 14:56 Sunny 30 -1.1 17 -8.3 58 58 SSW 10 17 30.43 1031 10 16.0934 0 0
3:56 pm 15:56 Sunny 30 -1.1 18 -7.8 61 61 S 7 11 30.41 1030 10 16.0934 0 0
4:56 pm 16:56 Sunny 30 -1.1 18 -7.8 61 61 S 7 11 30.4 1030 10 16.0934 0 0
5:56 pm 17:56 Clear 29 -1.7 19 -7.2 66 66 SSE 7 11 30.4 1029 10 16.0934 0 0
6:56 pm 18:56 Clear 29 -1.7 19 -7.2 66 66 S 10 17 30.4 1029 10 16.0934 0 0
7:56 pm 19:56 Cloudy 29 -1.7 20 -6.7 69 69 S 8 13 30.39 1029 10 16.0934 0 0
8:56 pm 20:56 Cloudy 29 -1.7 21 -6.1 72 72 SSE 8 13 30.37 1028 10 16.0934 0 0
9:56 pm 21:56 Cloudy 30 -1.1 21 -6.1 69 69 S 8 13 30.34 1027 10 16.0934 0 0
10:56 pm 22:56 Cloudy 32 0 21 -6.1 64 64 S 8 13 30.32 1027 10 16.0934 0 0
11:56 pm 23:56 Cloudy 33 0.6 19 -7.2 56 56 S 10 17 30.3 1026 10 16.0934 0 0

Powered by AerisWeather